Terminal Aerodrome Forecast
Issued by NWS Lake Charles, LA

Current Version | Previous Version | Text Only | Print | Product List | Glossary On
Versions: 1 2 3 4 5 6 7 8 9 10 11 12 13 14 15
585
FTUS44 KLCH 120523
TAFBPT
TAF
KBPT 120523Z 1206/1306 20005KT 3SM BR BKN015
      TEMPO 1206/1210 1/2SM FG BKN003
     FM121000 20004KT 1/2SM FG OVC002
      TEMPO 1211/1215 4SM BR BKN015
     FM121500 24011KT P6SM SCT025
     FM130000 VRB05KT P6SM SCT050=

USA.gov is the U.S. government's official web portal to all federal, state and local government web resources and services.